createdAt,value
2022-11-19T00:02:26.062Z,8.70
2022-11-19T00:04:54.948Z,8.70
2022-11-19T00:07:23.464Z,8.70
2022-11-19T00:09:51.538Z,8.70
2022-11-19T00:12:37.452Z,8.70
2022-11-19T00:15:08.775Z,8.70
2022-11-19T00:17:40.435Z,8.70
2022-11-19T00:20:11.917Z,8.70
2022-11-19T00:22:41.743Z,8.70
2022-11-19T00:25:11.009Z,8.70
2022-11-19T00:27:39.498Z,8.70
2022-11-19T00:30:19.942Z,8.70
2022-11-19T00:32:59.053Z,8.80
2022-11-19T00:35:28.863Z,8.70
2022-11-19T00:38:00.026Z,8.70
2022-11-19T00:40:28.232Z,8.70
2022-11-19T00:43:16.614Z,8.70
2022-11-19T00:45:46.444Z,8.70
2022-11-19T00:48:15.878Z,8.70
2022-11-19T00:50:44.728Z,8.70
2022-11-19T00:53:14.096Z,8.60
2022-11-19T00:55:43.435Z,8.60
2022-11-19T00:58:12.020Z,8.60
2022-11-19T01:00:40.160Z,8.50
2022-11-19T01:03:09.207Z,8.50
2022-11-19T01:05:41.731Z,8.50
2022-11-19T01:08:09.944Z,8.40
2022-11-19T01:10:38.406Z,8.50
2022-11-19T01:13:23.746Z,8.40
2022-11-19T01:15:52.743Z,8.40
2022-11-19T01:18:29.267Z,8.40
2022-11-19T01:20:58.892Z,8.40
2022-11-19T01:23:27.209Z,8.40
2022-11-19T01:25:55.769Z,8.40
2022-11-19T01:28:26.618Z,8.40
2022-11-19T01:30:56.262Z,8.30
2022-11-19T01:33:24.830Z,8.30
2022-11-19T01:35:59.676Z,8.30
2022-11-19T01:38:31.540Z,8.20
2022-11-19T01:41:02.740Z,8.20
2022-11-19T01:43:45.987Z,8.10
2022-11-19T01:46:17.168Z,8.10
2022-11-19T01:48:49.869Z,8.10
2022-11-19T01:51:26.982Z,8.00
2022-11-19T01:54:01.566Z,8.00
2022-11-19T01:56:30.544Z,8.00
2022-11-19T01:59:04.014Z,8.00
2022-11-19T02:01:33.657Z,8.00
2022-11-19T02:04:04.443Z,8.00
2022-11-19T02:06:35.497Z,8.00
2022-11-19T02:09:03.912Z,8.00
2022-11-19T02:12:04.943Z,8.00
2022-11-19T02:14:50.508Z,7.90
2022-11-19T02:17:33.552Z,7.90
2022-11-19T02:20:35.976Z,7.90
2022-11-19T02:23:44.731Z,7.90
2022-11-19T02:26:43.504Z,8.00
2022-11-19T02:29:22.246Z,8.00
2022-11-19T02:31:59.614Z,8.00
2022-11-19T02:34:33.957Z,8.00
2022-11-19T02:37:10.338Z,8.00
2022-11-19T02:39:44.926Z,8.00
2022-11-19T02:42:22.928Z,8.00
2022-11-19T02:45:05.350Z,8.10
2022-11-19T02:47:40.690Z,8.00
2022-11-19T02:50:12.935Z,8.00
2022-11-19T02:52:43.203Z,8.00
2022-11-19T02:55:14.040Z,8.00
2022-11-19T02:57:48.158Z,8.00
2022-11-19T03:00:36.610Z,8.00
2022-11-19T03:03:28.265Z,8.00
2022-11-19T03:06:00.196Z,7.90
2022-11-19T03:08:28.802Z,7.90
2022-11-19T03:11:07.512Z,8.00
2022-11-19T03:14:06.060Z,8.00
2022-11-19T03:16:48.646Z,8.00
2022-11-19T03:19:52.783Z,7.90
2022-11-19T03:22:28.642Z,8.00
2022-11-19T03:25:02.422Z,8.00
2022-11-19T03:27:43.177Z,8.00
2022-11-19T03:30:13.261Z,8.00
2022-11-19T03:32:46.258Z,8.10
2022-11-19T03:35:20.508Z,8.00
2022-11-19T03:38:07.279Z,8.00
2022-11-19T03:40:42.857Z,8.00
2022-11-19T03:43:16.359Z,8.00
2022-11-19T03:45:48.171Z,8.10
2022-11-19T03:48:18.969Z,8.10
2022-11-19T03:50:53.302Z,8.00
2022-11-19T03:53:22.515Z,8.10
2022-11-19T03:56:04.642Z,8.10
2022-11-19T03:58:39.835Z,8.00
2022-11-19T04:01:08.949Z,8.00
2022-11-19T04:03:38.628Z,8.00
2022-11-19T04:06:08.725Z,8.00
2022-11-19T04:08:37.104Z,8.00
2022-11-19T04:13:32.660Z,8.10
2022-11-19T04:16:01.043Z,8.10
2022-11-19T04:18:29.779Z,8.10
2022-11-19T04:20:57.871Z,8.10
2022-11-19T04:23:31.098Z,8.10
2022-11-19T04:25:59.721Z,8.10
2022-11-19T04:28:28.205Z,8.10
2022-11-19T04:30:56.734Z,8.10
2022-11-19T04:33:25.342Z,8.20
2022-11-19T04:35:53.608Z,8.10
2022-11-19T04:38:22.015Z,8.20
2022-11-19T04:40:52.548Z,8.20
2022-11-19T04:43:20.576Z,8.20
2022-11-19T04:45:48.700Z,8.20
2022-11-19T04:48:17.090Z,8.20
2022-11-19T04:50:45.442Z,8.20
2022-11-19T04:53:14.868Z,8.20
2022-11-19T04:55:43.424Z,8.20
2022-11-19T04:58:12.967Z,8.20
2022-11-19T05:00:41.648Z,8.20
2022-11-19T05:03:12.515Z,8.20
2022-11-19T05:05:40.728Z,8.30
2022-11-19T05:08:08.980Z,8.30
2022-11-19T05:10:37.222Z,8.20
2022-11-19T05:13:05.775Z,8.20
2022-11-19T05:15:35.419Z,8.20
2022-11-19T05:18:04.198Z,8.20
2022-11-19T05:20:32.330Z,8.20
2022-11-19T05:23:02.366Z,8.10
2022-11-19T05:25:30.756Z,8.10
2022-11-19T05:27:58.862Z,8.00
2022-11-19T05:30:28.404Z,8.00
2022-11-19T05:32:58.671Z,8.00
2022-11-19T05:35:27.428Z,7.90
2022-11-19T05:37:55.684Z,7.90
2022-11-19T05:40:23.727Z,7.90
2022-11-19T05:42:52.407Z,7.90
2022-11-19T05:45:20.865Z,7.90
2022-11-19T05:47:49.145Z,7.90
2022-11-19T05:50:19.638Z,7.90
2022-11-19T05:52:48.031Z,8.00
2022-11-19T05:55:16.815Z,8.00
2022-11-19T05:57:44.848Z,8.00
2022-11-19T06:00:14.632Z,8.00
2022-11-19T06:02:43.697Z,8.00
2022-11-19T06:05:14.041Z,8.00
2022-11-19T06:07:43.841Z,8.10
2022-11-19T06:10:13.017Z,8.10
2022-11-19T06:12:45.861Z,8.10
2022-11-19T06:15:15.437Z,8.10
2022-11-19T06:17:47.122Z,8.10
2022-11-19T06:20:17.818Z,8.10
2022-11-19T06:22:52.281Z,8.10
2022-11-19T06:25:20.982Z,8.10
2022-11-19T06:27:49.445Z,8.10
2022-11-19T06:30:19.148Z,8.10
2022-11-19T06:32:49.916Z,8.20
2022-11-19T06:35:18.914Z,8.20
2022-11-19T06:37:50.422Z,8.20
2022-11-19T06:40:22.378Z,8.20
2022-11-19T06:42:53.952Z,8.20
2022-11-19T06:45:23.873Z,8.20
2022-11-19T06:47:52.762Z,8.20
2022-11-19T06:50:21.857Z,8.10
2022-11-19T06:53:01.232Z,8.10
2022-11-19T06:55:38.434Z,8.20
2022-11-19T06:58:10.143Z,8.20
2022-11-19T07:00:42.874Z,8.20
2022-11-19T07:03:12.553Z,8.20
2022-11-19T07:05:42.550Z,8.20
2022-11-19T07:08:13.399Z,8.20
2022-11-19T07:10:42.089Z,8.10
2022-11-19T07:13:13.726Z,8.10
2022-11-19T07:15:43.230Z,8.10
2022-11-19T07:18:17.319Z,8.10
2022-11-19T07:20:51.964Z,8.20
2022-11-19T07:23:25.641Z,8.20
2022-11-19T07:26:02.416Z,8.20
2022-11-19T07:28:36.819Z,8.20
2022-11-19T07:31:07.989Z,8.20
2022-11-19T07:33:39.626Z,8.20
2022-11-19T07:36:18.334Z,8.30
2022-11-19T07:38:51.990Z,8.30
2022-11-19T07:41:43.153Z,8.40
2022-11-19T07:44:11.671Z,8.50
2022-11-19T07:46:40.614Z,8.40
2022-11-19T07:49:11.493Z,8.30
2022-11-19T07:51:47.201Z,8.10
2022-11-19T07:54:17.560Z,7.90
2022-11-19T07:56:53.603Z,7.80
2022-11-19T07:59:23.954Z,7.60
2022-11-19T08:02:04.562Z,7.50
2022-11-19T08:04:33.587Z,7.30
2022-11-19T08:07:07.622Z,7.20
2022-11-19T08:09:44.433Z,7.20
2022-11-19T08:12:28.231Z,7.20
2022-11-19T08:15:02.933Z,7.20
2022-11-19T08:17:53.618Z,7.20
2022-11-19T08:20:31.021Z,7.20
2022-11-19T08:23:12.132Z,7.20
2022-11-19T08:25:49.215Z,7.20
2022-11-19T08:28:19.444Z,7.10
2022-11-19T08:30:48.191Z,7.00
2022-11-19T08:33:19.323Z,7.00
2022-11-19T08:36:13.741Z,7.00
2022-11-19T08:38:42.925Z,6.90
2022-11-19T08:41:33.382Z,6.90
2022-11-19T08:44:18.650Z,6.80
2022-11-19T08:46:51.953Z,6.80
2022-11-19T08:49:22.386Z,6.70
2022-11-19T08:51:51.901Z,6.70
2022-11-19T08:54:21.056Z,6.70
2022-11-19T08:56:51.831Z,6.70
2022-11-19T08:59:22.259Z,6.60
2022-11-19T09:01:54.231Z,6.60
2022-11-19T09:04:22.956Z,6.60
2022-11-19T09:06:51.450Z,6.60
2022-11-19T09:09:20.432Z,6.50
2022-11-19T09:11:55.590Z,6.40
2022-11-19T09:14:24.325Z,6.30
2022-11-19T09:16:53.906Z,6.30
2022-11-19T09:19:24.840Z,6.10
2022-11-19T09:21:53.550Z,6.10
2022-11-19T09:24:22.667Z,6.00
2022-11-19T09:26:53.488Z,6.00
2022-11-19T09:29:23.082Z,6.00
2022-11-19T09:31:51.768Z,6.00
2022-11-19T09:34:21.012Z,6.00
2022-11-19T09:36:50.349Z,5.90
2022-11-19T09:39:20.598Z,5.90
2022-11-19T09:41:58.892Z,5.90
2022-11-19T09:44:42.591Z,5.80
2022-11-19T09:47:26.181Z,5.80
2022-11-19T09:50:07.503Z,5.60
2022-11-19T09:52:42.466Z,5.70
2022-11-19T09:55:20.012Z,5.60
2022-11-19T09:57:55.126Z,5.60
2022-11-19T10:00:27.785Z,5.70
2022-11-19T10:02:57.339Z,5.70
2022-11-19T10:05:38.948Z,5.60
2022-11-19T10:08:36.275Z,5.60
2022-11-19T10:11:26.782Z,5.60
2022-11-19T10:14:06.379Z,5.60
2022-11-19T10:16:46.201Z,5.50
2022-11-19T10:19:23.948Z,5.50
2022-11-19T10:21:59.723Z,5.40
2022-11-19T10:24:40.498Z,5.30
2022-11-19T10:27:20.677Z,5.20
2022-11-19T10:29:54.817Z,5.20
2022-11-19T10:32:31.708Z,5.20
2022-11-19T10:35:04.648Z,5.20
2022-11-19T10:37:37.477Z,5.00
2022-11-19T10:40:10.805Z,5.00
2022-11-19T10:42:43.755Z,5.00
2022-11-19T10:45:22.494Z,5.00
2022-11-19T10:47:55.061Z,4.90
2022-11-19T10:50:25.338Z,4.80
2022-11-19T10:52:56.403Z,4.90
2022-11-19T10:55:30.515Z,4.90
2022-11-19T10:58:10.286Z,4.80
2022-11-19T11:00:46.764Z,4.80
2022-11-19T11:03:23.016Z,4.80
2022-11-19T11:06:15.373Z,4.80
2022-11-19T11:08:55.597Z,4.70
2022-11-19T11:11:47.250Z,4.70
2022-11-19T11:14:41.109Z,4.70
2022-11-19T11:17:30.002Z,4.70
2022-11-19T11:20:24.919Z,4.70
2022-11-19T11:23:07.570Z,4.70
2022-11-19T11:25:41.466Z,4.70
2022-11-19T11:28:35.690Z,4.70
2022-11-19T11:31:17.271Z,4.70
2022-11-19T11:34:14.779Z,4.70
2022-11-19T11:36:45.804Z,4.40
2022-11-19T11:39:44.802Z,4.30
2022-11-19T11:42:21.779Z,4.50
2022-11-19T11:45:06.309Z,4.40
2022-11-19T11:50:43.746Z,4.60
2022-11-19T11:53:30.992Z,4.50
2022-11-19T11:56:04.703Z,4.50
2022-11-19T12:04:01.350Z,4.50
2022-11-19T12:06:56.823Z,4.40
2022-11-19T12:09:41.077Z,5.20
2022-11-19T12:12:33.369Z,4.40
2022-11-19T12:15:17.093Z,4.00
2022-11-19T12:18:03.412Z,4.60
2022-11-19T12:20:45.313Z,4.40
2022-11-19T12:23:49.366Z,4.80
2022-11-19T12:26:29.784Z,4.30
2022-11-19T12:29:14.298Z,4.30
2022-11-19T12:32:09.839Z,4.30
2022-11-19T12:37:46.605Z,4.30
2022-11-19T12:48:35.074Z,4.30
2022-11-19T12:57:01.869Z,4.40
2022-11-19T13:03:05.818Z,4.30
2022-11-19T13:06:18.717Z,4.40
2022-11-19T13:09:12.161Z,4.30
2022-11-19T13:12:05.226Z,4.20
2022-11-19T13:15:02.398Z,4.10
2022-11-19T13:17:42.924Z,4.20
2022-11-19T13:22:58.285Z,4.10
2022-11-19T13:25:32.672Z,4.10
2022-11-19T13:28:37.328Z,4.20
2022-11-19T13:39:52.776Z,4.00
2022-11-19T13:50:59.250Z,4.10
2022-11-19T13:59:31.087Z,3.90
2022-11-19T14:02:33.290Z,4.40
2022-11-19T14:05:41.212Z,3.90
2022-11-19T14:12:20.713Z,3.90
2022-11-19T14:15:54.009Z,4.00
2022-11-19T14:31:13.159Z,4.20
2022-11-19T14:39:32.185Z,4.20
2022-11-19T14:53:58.049Z,4.00
2022-11-19T15:07:32.062Z,4.00
2022-11-19T15:19:12.676Z,6.80
2022-11-19T15:22:21.608Z,4.20
2022-11-19T15:25:15.347Z,3.80
2022-11-19T15:27:55.553Z,3.80
2022-11-19T15:33:35.673Z,4.00
2022-11-19T15:46:46.655Z,3.90
2022-11-19T15:54:35.206Z,3.90
2022-11-19T15:57:07.379Z,4.10
2022-11-19T16:07:26.321Z,3.90
2022-11-19T16:12:42.960Z,3.80
2022-11-19T16:15:41.256Z,3.90
2022-11-19T16:18:23.408Z,3.90
2022-11-19T16:20:54.343Z,4.10
2022-11-19T16:23:25.599Z,3.80
2022-11-19T16:25:56.001Z,3.90
2022-11-19T16:28:27.755Z,4.00
2022-11-19T16:31:01.545Z,3.90
2022-11-19T16:33:35.706Z,3.50
2022-11-19T16:36:16.829Z,4.00
2022-11-19T16:38:51.049Z,3.60
2022-11-19T16:41:41.379Z,4.00
2022-11-19T16:44:21.750Z,3.70
2022-11-19T16:46:57.392Z,3.40
2022-11-19T16:49:54.765Z,3.50
2022-11-19T16:52:43.760Z,3.70
2022-11-19T16:55:46.882Z,3.80
2022-11-19T16:58:18.160Z,3.70
2022-11-19T17:00:52.153Z,3.70
2022-11-19T17:03:34.481Z,3.70
2022-11-19T17:06:05.943Z,3.20
2022-11-19T17:08:36.799Z,3.70
2022-11-19T17:11:39.201Z,3.70
2022-11-19T17:14:19.782Z,3.70
2022-11-19T17:16:50.183Z,3.70
2022-11-19T17:19:28.648Z,3.60
2022-11-19T17:22:00.983Z,3.50
2022-11-19T17:24:33.143Z,3.50
2022-11-19T17:27:02.377Z,3.60
2022-11-19T17:29:34.023Z,3.50
2022-11-19T17:32:06.450Z,3.30
2022-11-19T17:34:45.937Z,3.40
2022-11-19T17:37:16.196Z,3.40
2022-11-19T17:39:46.184Z,3.40
2022-11-19T17:42:31.961Z,3.40
2022-11-19T17:45:07.556Z,3.40
2022-11-19T17:47:39.542Z,3.40
2022-11-19T17:50:09.735Z,3.50
2022-11-19T17:52:41.378Z,3.30
2022-11-19T17:55:16.758Z,3.40
2022-11-19T17:57:46.495Z,3.40
2022-11-19T18:00:17.060Z,3.40
2022-11-19T18:02:48.773Z,3.40
2022-11-19T18:05:21.223Z,3.70
2022-11-19T18:07:55.113Z,3.50
2022-11-19T18:10:23.722Z,3.50
2022-11-19T18:12:52.288Z,3.50
2022-11-19T18:15:22.069Z,3.50
2022-11-19T18:17:50.935Z,3.50
2022-11-19T18:20:19.004Z,3.50
2022-11-19T18:22:53.460Z,3.40
2022-11-19T18:25:23.183Z,3.00
2022-11-19T18:28:05.074Z,3.40
2022-11-19T18:30:36.375Z,3.40
2022-11-19T18:33:05.789Z,3.40
2022-11-19T18:35:37.183Z,3.40
2022-11-19T18:38:06.353Z,3.40
2022-11-19T18:40:37.839Z,3.40
2022-11-19T18:43:24.290Z,3.40
2022-11-19T18:45:53.059Z,3.50
2022-11-19T18:48:22.045Z,3.40
2022-11-19T18:50:51.016Z,3.40
2022-11-19T18:53:19.695Z,3.40
2022-11-19T18:55:49.366Z,3.40
2022-11-19T18:58:17.529Z,3.50
2022-11-19T19:00:46.498Z,3.50
2022-11-19T19:03:15.707Z,3.50
2022-11-19T19:05:44.114Z,3.50
2022-11-19T19:08:14.851Z,3.20
2022-11-19T19:10:43.072Z,3.40
2022-11-19T19:13:11.749Z,3.40
2022-11-19T19:15:41.190Z,3.30
2022-11-19T19:18:10.284Z,3.40
2022-11-19T19:20:38.969Z,3.40
2022-11-19T19:23:07.324Z,3.40
2022-11-19T19:25:36.293Z,3.40
2022-11-19T19:28:05.394Z,3.30
2022-11-19T19:30:35.240Z,3.30
2022-11-19T19:33:07.993Z,3.30
2022-11-19T19:35:40.555Z,3.30
2022-11-19T19:38:09.367Z,3.30
2022-11-19T19:40:37.616Z,3.60
2022-11-19T19:43:06.466Z,3.20
2022-11-19T19:45:36.531Z,3.20
2022-11-19T19:48:07.481Z,3.20
2022-11-19T19:50:35.752Z,3.20
2022-11-19T19:53:04.024Z,3.20
2022-11-19T19:55:32.165Z,3.10
2022-11-19T19:58:05.425Z,3.10
2022-11-19T20:00:33.810Z,3.20
2022-11-19T20:03:03.578Z,3.10
2022-11-19T20:05:31.770Z,3.20
2022-11-19T20:08:00.162Z,3.20
2022-11-19T20:10:28.159Z,3.20
2022-11-19T20:13:13.796Z,3.20
2022-11-19T20:15:42.095Z,3.20
2022-11-19T20:18:13.540Z,3.20
2022-11-19T20:20:41.572Z,3.20
2022-11-19T20:23:09.855Z,3.30
2022-11-19T20:25:38.011Z,3.30
2022-11-19T20:28:06.462Z,1.80
2022-11-19T20:30:36.835Z,4.10
2022-11-19T20:33:05.295Z,3.30
2022-11-19T20:35:35.326Z,3.60
2022-11-19T20:38:03.835Z,3.30
2022-11-19T20:40:32.395Z,3.30
2022-11-19T20:43:20.097Z,3.20
2022-11-19T20:45:49.430Z,3.20
2022-11-19T20:48:17.921Z,3.20
2022-11-19T20:50:48.137Z,3.20
2022-11-19T20:53:18.288Z,3.10
2022-11-19T20:56:04.567Z,3.20
2022-11-19T20:58:39.669Z,3.20
2022-11-19T21:01:10.560Z,3.30
2022-11-19T21:03:39.660Z,3.30
2022-11-19T21:06:13.233Z,3.30
2022-11-19T21:08:41.540Z,3.30
2022-11-19T21:11:15.427Z,3.20
2022-11-19T21:13:44.694Z,3.00
2022-11-19T21:16:19.827Z,3.20
2022-11-19T21:18:48.917Z,3.20
2022-11-19T21:21:20.336Z,3.20
2022-11-19T21:23:50.919Z,3.20
2022-11-19T21:26:22.049Z,3.20
2022-11-19T21:28:59.274Z,3.20
2022-11-19T21:31:38.619Z,3.20
2022-11-19T21:34:09.524Z,3.10
2022-11-19T21:36:40.152Z,3.10
2022-11-19T21:39:09.269Z,3.10
2022-11-19T21:41:37.903Z,3.10
2022-11-19T21:44:07.237Z,3.20
2022-11-19T21:46:36.475Z,3.20
2022-11-19T21:49:05.289Z,3.20
2022-11-19T21:51:33.566Z,3.20
2022-11-19T21:54:03.416Z,3.20
2022-11-19T21:56:37.133Z,3.30
2022-11-19T21:59:07.808Z,3.30
2022-11-19T22:01:37.087Z,3.30
2022-11-19T22:04:05.553Z,3.20
2022-11-19T22:06:34.029Z,3.20
2022-11-19T22:09:05.906Z,3.10
2022-11-19T22:11:34.409Z,3.20
2022-11-19T22:14:05.640Z,3.20
2022-11-19T22:16:36.330Z,3.30
2022-11-19T22:19:07.930Z,3.30
2022-11-19T22:21:36.608Z,3.40
2022-11-19T22:24:07.442Z,3.40
2022-11-19T22:26:35.647Z,3.40
2022-11-19T22:29:03.987Z,3.40
2022-11-19T22:31:38.245Z,3.40
2022-11-19T22:34:07.771Z,3.40
2022-11-19T22:36:43.361Z,3.40
2022-11-19T22:39:14.436Z,3.40
2022-11-19T22:41:45.013Z,3.00
2022-11-19T22:44:15.268Z,3.40
2022-11-19T22:46:48.222Z,3.50
2022-11-19T22:49:17.583Z,3.40
2022-11-19T22:51:52.392Z,3.40
2022-11-19T22:54:45.437Z,3.40
2022-11-19T22:57:14.520Z,3.50
2022-11-19T22:59:44.447Z,3.40
2022-11-19T23:02:19.049Z,3.50
2022-11-19T23:04:47.542Z,3.50
2022-11-19T23:07:22.880Z,3.50
2022-11-19T23:09:55.718Z,3.40
2022-11-19T23:12:43.242Z,3.80
2022-11-19T23:15:20.499Z,3.30
2022-11-19T23:17:56.974Z,3.40
2022-11-19T23:20:30.342Z,3.40
2022-11-19T23:23:02.699Z,3.40
2022-11-19T23:25:40.471Z,3.50
2022-11-19T23:28:12.092Z,3.50
2022-11-19T23:30:41.037Z,3.40
2022-11-19T23:33:09.291Z,3.50
2022-11-19T23:35:37.706Z,3.40
2022-11-19T23:38:06.009Z,3.50
2022-11-19T23:40:36.431Z,3.50
2022-11-19T23:43:04.804Z,3.50
2022-11-19T23:45:36.150Z,3.40
2022-11-19T23:48:05.581Z,3.40
2022-11-19T23:50:33.864Z,3.40
2022-11-19T23:53:02.035Z,3.40
2022-11-19T23:55:30.475Z,3.40
2022-11-19T23:58:00.486Z,3.40
